Weather History for Beale AFB, CA

Change the Weather History Date:

Sunday, March 31, 2013

  Actual Average Record
Temperature  
Mean Temperature 60 °F -  
Max Temperature 69 °F 66 °F 82 °F (2001)
Min Temperature 53 °F 45 °F 36 °F (2008)
Degree Days  
Heating Degree Days 4    
Growing Degree Days 10 (Base 50)    
Moisture  
Dew Point 54 °F    
Average Humidity 92    
Maximum Humidity 100    
Minimum Humidity 47    
Precipitation  
Precipitation 1.30 in - - ()
Sea Level Pressure  
Sea Level Pressure 30.11 in    
Wind  
Wind Speed 8 mph (SE)    
Max Wind Speed 23 mph    
Max Gust Speed 32 mph    
Visibility 6 miles    
Events Rain , Thunderstorm    
Averages and records for this station are not official NWS values.
T = Trace of Precipitation, MM = Missing Value Source: NWS Daily Summary

Daily Weather History Graph

Daily Weather History Graph

Search for Another Location

Airport:

Trip Planner

Search our weather history database for the weather conditions in past years. The results will help you decide how hot, cold, wet, or windy it might be!

Date:

Astronomy

Mar. 31, 2013 Rise Set
Actual Time 6:51 AM PDT 7:28 PM PDT
Civil Twilight 6:24 AM PDT 7:55 PM PDT
Nautical Twilight 5:52 AM PDT 8:27 PM PDT
Astronomical Twilight 5:19 AM PDT 9:00 PM PDT
Moon No Moon Rise 9:45 AM PDT (3/31)
Length of Visible Light 13h 31m
Length of Day
12h 37m
Waning Gibbous, 76% of the Moon is Illuminated
Mar 31
Waning Gibbous
Apr 2
Last Quarter
Apr 10
New
Apr 18
First Quarter
Apr 25
Full

Hourly Weather History & Observations

Time (PDT) Temp. Dew Point Humidity Pressure Visibility Wind Dir Wind Speed Gust Speed Precip Events Conditions
12:58 AM 59.9 °F 51.3 °F 73% 30.22 in 10.0 mi SW 9.2 mph - N/A   Overcast
1:11 AM 59.0 °F 51.8 °F 77% 30.01 in 10.0 mi SSW 8.1 mph - N/A Rain Light Rain
1:20 AM 59.0 °F 51.8 °F 77% 30.01 in 10.0 mi SSW 5.8 mph - N/A   Overcast
1:29 AM 59.0 °F 53.6 °F 82% 30.02 in 9.0 mi SSW 10.4 mph - N/A Rain Light Rain
1:39 AM 57.2 °F 53.6 °F 88% 30.02 in 4.0 mi SW 6.9 mph - N/A Rain Light Rain
1:58 AM 57.2 °F 54.5 °F 91% 30.25 in 3.0 mi East 4.6 mph - 0.04 in Rain Light Rain
2:28 AM 55.4 °F 55.4 °F 100% 30.03 in 2.0 mi South 2.3 mph - N/A Rain Rain
2:38 AM 55.4 °F 55.4 °F 100% 30.02 in 1.2 mi Calm Calm - N/A Rain Heavy Rain
2:48 AM 55.4 °F 55.4 °F 100% 30.02 in 2.5 mi SSE 1.2 mph - N/A Rain Light Rain
2:58 AM 55.8 °F 55.8 °F 100% 30.25 in 7.0 mi Calm Calm - 0.16 in Rain Light Rain
3:28 AM 55.4 °F 55.4 °F 100% 30.03 in 4.0 mi East 4.6 mph - N/A Rain Light Rain
3:38 AM 55.4 °F 55.4 °F 100% 30.03 in 2.5 mi SE 3.5 mph - N/A Rain Rain
3:58 AM 55.6 °F 55.6 °F 100% 30.25 in 2.0 mi South 3.5 mph - 0.16 in Rain Rain
4:28 AM 55.4 °F 55.4 °F 100% 30.03 in 1.8 mi ESE 5.8 mph - N/A Rain Rain
4:32 AM 55.4 °F 55.4 °F 100% 30.02 in 2.0 mi SE 5.8 mph - N/A Rain Light Rain
4:52 AM 55.4 °F 55.4 °F 100% 30.03 in 3.0 mi SSE 8.1 mph - N/A Rain Rain
4:54 AM 55.4 °F 55.4 °F 100% 30.04 in 3.0 mi SSE 8.1 mph - N/A Rain Rain
4:58 AM 55.6 °F 55.6 °F 100% 30.27 in 3.0 mi SSE 8.1 mph - 0.23 in Rain Rain
5:08 AM 55.4 °F 55.4 °F 100% 30.05 in 4.0 mi South 8.1 mph - N/A Rain Light Rain
5:18 AM 55.4 °F 55.4 °F 100% 30.04 in 3.0 mi Variable 3.5 mph - N/A Rain Rain
5:28 AM 55.4 °F 55.4 °F 100% 30.03 in 2.5 mi Variable 3.5 mph - N/A Rain Light Rain
5:38 AM 55.4 °F 55.4 °F 100% 30.05 in 4.0 mi South 4.6 mph - N/A Rain Light Rain
5:48 AM 55.4 °F 55.4 °F 100% 30.05 in 8.0 mi South 5.8 mph - N/A Rain Light Rain
5:50 AM 55.4 °F 55.4 °F 100% 30.05 in 9.0 mi South 6.9 mph - N/A   Overcast
5:53 AM 55.4 °F 55.4 °F 100% 30.05 in 9.0 mi South 8.1 mph - N/A Rain Light Rain
5:58 AM 55.4 °F 55.4 °F 100% 30.28 in 8.0 mi South 5.8 mph - 0.09 in Rain Light Rain
6:08 AM 55.4 °F 55.4 °F 100% 30.06 in 4.0 mi South 6.9 mph - N/A Rain Light Rain
6:18 AM 55.4 °F 55.4 °F 100% 30.05 in 9.0 mi South 4.6 mph - N/A Rain Light Rain
6:19 AM 55.4 °F 55.4 °F 100% 30.05 in 10.0 mi South 4.6 mph - N/A   Overcast
6:46 AM 55.4 °F 55.4 °F 100% 30.06 in 9.0 mi SSE 8.1 mph - N/A Rain Light Rain
6:56 AM 55.4 °F 55.4 °F 100% 30.06 in 1.8 mi SSE 11.5 mph - N/A Rain Rain
6:58 AM 55.4 °F 55.4 °F 100% 30.29 in 1.2 mi SSE 11.5 mph - 0.04 in Rain Heavy Rain
7:00 AM 55.4 °F 55.4 °F 100% 30.06 in 0.8 mi SSE 11.5 mph - N/A Rain Heavy Rain
7:20 AM 55.4 °F 55.4 °F 100% 30.06 in 1.0 mi SSE 9.2 mph - N/A Rain Heavy Rain
7:30 AM 55.4 °F 55.4 °F 100% 30.06 in 4.0 mi SE 10.4 mph - N/A Rain Light Rain
7:40 AM 55.4 °F 55.4 °F 100% 30.07 in 2.5 mi ESE 8.1 mph - N/A   Light Drizzle
7:50 AM 53.6 °F 53.6 °F 100% 30.06 in 3.0 mi ESE 4.6 mph - N/A   Light Drizzle
7:53 AM 55.4 °F 55.4 °F 100% 30.06 in 5.0 mi ESE 3.5 mph - N/A   Overcast
7:58 AM 54.5 °F 54.5 °F 100% 30.30 in 7.0 mi SE 6.9 mph - 0.25 in   Overcast
8:19 AM 55.4 °F 55.4 °F 100% 30.07 in 6.0 mi SE 8.1 mph - N/A Rain Light Rain
8:29 AM 55.4 °F 55.4 °F 100% 30.07 in 2.0 mi ESE 10.4 mph - N/A Rain Light Rain
8:39 AM 55.4 °F 55.4 °F 100% 30.07 in 3.0 mi SE 8.1 mph - N/A Rain Light Rain
8:49 AM 55.4 °F 55.4 °F 100% 30.07 in 2.5 mi ESE 6.9 mph - N/A Rain Light Rain
8:58 AM 54.7 °F 54.7 °F 100% 30.30 in 6.0 mi ESE 5.8 mph - 0.05 in Rain Light Rain
9:03 AM 55.4 °F 55.4 °F 100% 30.08 in 6.0 mi ESE 9.2 mph - N/A   Overcast
9:20 AM 55.4 °F 55.4 °F 100% 30.08 in 8.0 mi SE 5.8 mph - N/A   Light Drizzle
9:24 AM 55.4 °F 55.4 °F 100% 30.08 in 4.0 mi SE 5.8 mph - N/A Rain Light Rain
9:34 AM 55.4 °F 55.4 °F 100% 30.09 in 2.5 mi ESE 6.9 mph - N/A Rain Light Rain
9:44 AM 55.4 °F 55.4 °F 100% 30.09 in 3.0 mi ESE 8.1 mph - N/A   Light Drizzle
9:50 AM 55.4 °F 55.4 °F 100% 30.09 in 6.0 mi ESE 9.2 mph - N/A   Overcast
9:58 AM 55.4 °F 55.4 °F 100% 30.33 in 9.0 mi ESE 10.4 mph - 0.02 in   Overcast
9:59 AM 55.4 °F 55.4 °F 100% 30.10 in 9.0 mi ESE 9.2 mph - N/A   Light Drizzle
10:19 AM 55.4 °F 55.4 °F 100% 30.10 in 4.0 mi ESE 9.2 mph - N/A Rain Light Rain
10:29 AM 55.4 °F 55.4 °F 100% 30.11 in 1.2 mi East 8.1 mph - N/A Rain Rain
10:39 AM 55.4 °F 55.4 °F 100% 30.10 in 2.0 mi East 8.1 mph - N/A Rain Light Rain
10:49 AM 55.4 °F 55.4 °F 100% 30.11 in 9.0 mi East 6.9 mph - N/A   Light Drizzle
10:50 AM 55.4 °F 55.4 °F 100% 30.11 in 10.0 mi ESE 6.9 mph - N/A   Light Drizzle
10:51 AM 55.4 °F 55.4 °F 100% 30.11 in 10.0 mi ESE 6.9 mph - N/A   Overcast
10:58 AM 56.8 °F 56.8 °F 100% 30.33 in 10.0 mi East 3.5 mph - 0.07 in   Overcast
11:08 AM 59.0 °F 59.0 °F 100% 30.10 in 10.0 mi SE 5.8 mph - N/A   Overcast
11:58 AM 60.8 °F 55.4 °F 82% 30.32 in 10.0 mi East 4.6 mph - N/A   Mostly Cloudy
12:38 PM 62.6 °F 53.6 °F 72% 30.08 in 9.0 mi SE 4.6 mph - N/A   Scattered Clouds
12:58 PM 63.3 °F 52.7 °F 68% 30.30 in 10.0 mi Variable 2.3 mph - N/A   Scattered Clouds
1:58 PM 65.3 °F 53.4 °F 65% 30.28 in 10.0 mi Variable 1.2 mph - N/A   Scattered Clouds
2:58 PM 66.0 °F 51.4 °F 59% 30.25 in 10.0 mi South 5.8 mph - N/A   Partly Cloudy
3:58 PM 67.6 °F 49.3 °F 52% 30.23 in 10.0 mi NNW 1.2 mph - N/A   Partly Cloudy
4:58 PM 68.7 °F 47.8 °F 47% 30.21 in 10.0 mi SSW 5.8 mph - N/A   Clear
5:58 PM 66.9 °F 48.4 °F 51% 30.21 in 10.0 mi WSW 8.1 mph - N/A   Mostly Cloudy
6:14 PM 64.4 °F 51.8 °F 64% 30.00 in 10.0 mi SW 23.0 mph 32.2 mph N/A Thunderstorm Thunderstorm
6:26 PM 59.0 °F 50.0 °F 72% 30.00 in 10.0 mi WSW 20.7 mph 31.1 mph N/A Rain , Thunderstorm Light Thunderstorms and Rain
6:29 PM 59.0 °F 50.0 °F 72% 30.00 in 9.0 mi WSW 20.7 mph 31.1 mph N/A Rain , Thunderstorm Light Rain
6:39 PM 57.2 °F 51.8 °F 82% 30.01 in 1.0 mi WSW 18.4 mph 27.6 mph N/A Rain , Thunderstorm Heavy Rain
6:49 PM 55.4 °F 50.0 °F 82% 30.02 in 4.0 mi WSW 20.7 mph 26.5 mph N/A Rain Light Rain
6:58 PM 55.0 °F 50.5 °F 85% 30.24 in 6.0 mi West 18.4 mph - 0.10 in Rain Light Rain
7:00 PM 55.4 °F 50.0 °F 82% 30.01 in 9.0 mi West 17.3 mph - N/A Rain Light Rain
7:02 PM 55.4 °F 50.0 °F 82% 30.01 in 10.0 mi West 16.1 mph - N/A   Overcast
7:20 PM 55.4 °F 51.8 °F 88% 30.02 in 10.0 mi West 8.1 mph - N/A Rain Light Rain
7:34 PM 55.4 °F 51.8 °F 88% 30.02 in 10.0 mi NNW 5.8 mph - N/A   Overcast
7:58 PM 55.6 °F 52.3 °F 89% 30.25 in 10.0 mi North 10.4 mph - 0.00 in   Mostly Cloudy
8:11 PM 55.4 °F 53.6 °F 94% 30.02 in 10.0 mi North 10.4 mph - N/A Rain , Thunderstorm Light Rain
8:25 PM 55.4 °F 53.6 °F 94% 30.03 in 10.0 mi ENE 11.5 mph - N/A   Overcast
8:37 PM 55.4 °F 53.6 °F 94% 30.03 in 10.0 mi ENE 13.8 mph - N/A Rain Light Rain
8:47 PM 55.4 °F 53.6 °F 94% 30.03 in 3.0 mi NE 13.8 mph - N/A Rain Heavy Rain
8:58 PM 54.7 °F 52.7 °F 93% 30.26 in 4.0 mi ENE 13.8 mph - 0.06 in Rain Light Rain
9:08 PM 55.4 °F 53.6 °F 94% 30.04 in 9.0 mi ENE 13.8 mph - N/A Rain Light Rain
9:18 PM 55.4 °F 51.8 °F 88% 30.03 in 5.0 mi ENE 16.1 mph - N/A Rain Light Rain
9:25 PM 55.4 °F 51.8 °F 88% 30.03 in 10.0 mi ENE 13.8 mph - N/A   Overcast
9:58 PM 54.9 °F 52.7 °F 92% 30.27 in 10.0 mi ENE 10.4 mph - 0.02 in   Overcast
10:15 PM 55.4 °F 51.8 °F 88% 30.05 in 7.0 mi East 8.1 mph - N/A Rain Light Rain
10:25 PM 55.4 °F 51.8 °F 88% 30.06 in 6.0 mi SE 11.5 mph - N/A Rain Light Rain
10:31 PM 55.4 °F 51.8 °F 88% 30.05 in 10.0 mi ESE 12.7 mph - N/A   Overcast
10:58 PM 54.3 °F 52.7 °F 94% 30.28 in 10.0 mi SE 8.1 mph - 0.01 in   Mostly Cloudy
11:58 PM 54.3 °F 53.1 °F 95% 30.27 in 10.0 mi East 6.9 mph - N/A   Overcast